createdAt,value
2022-11-15T00:00:36.969Z,1003.3
2022-11-15T00:01:38.096Z,1003.3
2022-11-15T00:02:39.090Z,1003.3
2022-11-15T00:03:41.020Z,1003.3
2022-11-15T00:04:43.121Z,1003.2
2022-11-15T00:05:45.000Z,1003.2
2022-11-15T00:06:47.076Z,1003.2
2022-11-15T00:07:55.447Z,1003.2
2022-11-15T00:08:51.041Z,1003.2
2022-11-15T00:09:51.982Z,1003.2
2022-11-15T00:10:52.941Z,1003.2
2022-11-15T00:11:55.220Z,1003.2
2022-11-15T00:12:56.942Z,1003.1
2022-11-15T00:13:58.020Z,1003.1
2022-11-15T00:15:00.095Z,1003.1
2022-11-15T00:16:02.099Z,1003.1
2022-11-15T00:17:04.090Z,1003.1
2022-11-15T00:18:06.405Z,1003.1
2022-11-15T00:19:08.629Z,1003.1
2022-11-15T00:20:10.000Z,1003.1
2022-11-15T00:21:12.062Z,1003.1
2022-11-15T00:22:14.504Z,1003.1
2022-11-15T00:23:16.081Z,1003.3
2022-11-15T00:24:18.560Z,1003.1
2022-11-15T00:25:20.238Z,1003.1
2022-11-15T00:26:22.643Z,1003.1
2022-11-15T00:27:25.182Z,1003.2
2022-11-15T00:28:27.300Z,1003.1
2022-11-15T00:29:29.177Z,1003.1
2022-11-15T00:30:31.185Z,1003.1
2022-11-15T00:31:33.571Z,1003.1
2022-11-15T00:32:35.228Z,1003.2
2022-11-15T00:33:37.045Z,1003.1
2022-11-15T00:34:38.028Z,1003.1
2022-11-15T00:35:39.380Z,1003.1
2022-11-15T00:36:41.182Z,1003.1
2022-11-15T00:37:43.080Z,1003.1
2022-11-15T00:38:45.014Z,1003
2022-11-15T00:39:47.125Z,1003
2022-11-15T00:40:49.021Z,1002.9
2022-11-15T00:41:51.020Z,1002.9
2022-11-15T00:42:53.096Z,1002.9
2022-11-15T00:43:55.741Z,1002.9
2022-11-15T00:44:57.000Z,1002.9
2022-11-15T00:45:58.022Z,1002.9
2022-11-15T00:46:59.021Z,1002.9
2022-11-15T00:48:00.042Z,1003
2022-11-15T00:49:01.484Z,1002.9
2022-11-15T00:50:03.050Z,1002.9
2022-11-15T00:51:05.771Z,1002.8
2022-11-15T00:52:07.082Z,1002.9
2022-11-15T00:53:09.140Z,1002.9
2022-11-15T00:54:11.023Z,1002.9
2022-11-15T00:55:13.039Z,1003
2022-11-15T00:56:15.070Z,1002.9
2022-11-15T00:57:17.020Z,1002.9
2022-11-15T00:58:19.101Z,1003
2022-11-15T00:59:21.001Z,1003
2022-11-15T01:00:22.101Z,1002.9
2022-11-15T01:01:24.108Z,1002.9
2022-11-15T01:02:26.041Z,1002.9
2022-11-15T01:03:28.168Z,1002.9
2022-11-15T01:04:30.025Z,1002.9
2022-11-15T01:05:32.012Z,1002.9
2022-11-15T01:06:32.983Z,1002.9
2022-11-15T01:07:33.992Z,1002.9
2022-11-15T01:08:35.021Z,1002.9
2022-11-15T01:09:36.820Z,1002.9
2022-11-15T01:10:38.500Z,1003
2022-11-15T01:11:40.031Z,1003
2022-11-15T01:12:42.014Z,1003
2022-11-15T01:13:44.041Z,1002.9
2022-11-15T01:14:45.977Z,1002.9
2022-11-15T01:15:48.122Z,1002.9
2022-11-15T01:16:50.003Z,1002.9
2022-11-15T01:17:52.161Z,1002.9
2022-11-15T01:18:54.020Z,1002.9
2022-11-15T01:19:56.028Z,1002.9
2022-11-15T01:20:58.100Z,1002.9
2022-11-15T01:22:00.048Z,1002.9
2022-11-15T01:23:01.061Z,1002.9
2022-11-15T01:24:02.941Z,1002.9
2022-11-15T01:25:04.021Z,1003
2022-11-15T01:26:05.449Z,1002.9
2022-11-15T01:27:07.891Z,1002.9
2022-11-15T01:28:10.026Z,1002.9
2022-11-15T01:29:12.441Z,1002.9
2022-11-15T01:30:14.021Z,1002.9
2022-11-15T01:31:16.021Z,1002.8
2022-11-15T01:32:16.961Z,1002.8
2022-11-15T01:33:18.380Z,1002.7
2022-11-15T01:34:20.063Z,1002.8
2022-11-15T01:35:22.025Z,1002.8
2022-11-15T01:36:24.020Z,1002.8
2022-11-15T01:37:26.249Z,1002.7
2022-11-15T01:38:28.022Z,1002.8
2022-11-15T01:39:30.041Z,1002.7
2022-11-15T01:40:31.023Z,1002.7
2022-11-15T01:41:31.981Z,1002.7
2022-11-15T01:42:33.041Z,1002.7
2022-11-15T01:43:34.202Z,1002.6
2022-11-15T01:44:34.980Z,1002.6
2022-11-15T01:45:35.981Z,1002.6
2022-11-15T01:46:37.560Z,1002.6
2022-11-15T01:47:38.982Z,1002.5
2022-11-15T01:48:41.182Z,1002.5
2022-11-15T01:49:43.040Z,1002.2
2022-11-15T01:50:45.069Z,1002.5
2022-11-15T01:51:46.982Z,1002.5
2022-11-15T01:52:48.049Z,1001.7
2022-11-15T01:53:49.262Z,1002.2
2022-11-15T01:54:51.448Z,1002.4
2022-11-15T01:55:53.090Z,1002.4
2022-11-15T01:56:54.360Z,1002.4
2022-11-15T01:57:56.461Z,1002.5
2022-11-15T01:58:58.082Z,1002.4
2022-11-15T02:00:00.481Z,1002.4
2022-11-15T02:01:02.469Z,1002.4
2022-11-15T02:02:04.081Z,1002.3
2022-11-15T02:03:06.180Z,1002.3
2022-11-15T02:06:05.418Z,1002.2
2022-11-15T02:07:07.059Z,1002.2
2022-11-15T02:08:08.033Z,1002.3
2022-11-15T02:09:09.025Z,1002.2
2022-11-15T02:10:11.135Z,1002.2
2022-11-15T02:11:13.092Z,1002.2
2022-11-15T02:12:15.258Z,1002.2
2022-11-15T02:13:17.361Z,1002.2
2022-11-15T02:14:19.034Z,1002.2
2022-11-15T02:15:20.033Z,1002.2
2022-11-15T02:16:21.413Z,1002.2
2022-11-15T02:17:23.068Z,1002.1
2022-11-15T02:18:23.979Z,1002.2
2022-11-15T02:19:25.075Z,1002.2
2022-11-15T02:20:26.093Z,1002.2
2022-11-15T02:21:27.038Z,1002.2
2022-11-15T02:22:27.993Z,1002.4
2022-11-15T02:23:29.504Z,1002.2
2022-11-15T02:24:30.921Z,1002.2
2022-11-15T02:25:32.133Z,1002.1
2022-11-15T02:26:33.974Z,1002.2
2022-11-15T02:27:35.314Z,1002.5
2022-11-15T02:28:37.580Z,1002.2
2022-11-15T02:29:39.039Z,1002.1
2022-11-15T02:30:41.113Z,1002.1
2022-11-15T02:31:43.012Z,1002.1
2022-11-15T02:32:44.493Z,1002.1
2022-11-15T02:33:46.015Z,1002.1
2022-11-15T02:34:47.321Z,1002.1
2022-11-15T02:35:49.073Z,1002.1
2022-11-15T02:36:50.098Z,1002.1
2022-11-15T02:37:52.053Z,1002.1
2022-11-15T02:38:53.053Z,1002.2
2022-11-15T02:39:55.093Z,1002.1
2022-11-15T02:40:57.606Z,1002.2
2022-11-15T02:41:59.074Z,1002.2
2022-11-15T02:43:05.706Z,1002.2
2022-11-15T02:44:03.053Z,1002.2
2022-11-15T02:45:05.598Z,1002.2
2022-11-15T02:46:07.064Z,1002.2
2022-11-15T02:47:08.959Z,1002.1
2022-11-15T02:48:11.174Z,1002
2022-11-15T02:49:13.172Z,1002.1
2022-11-15T02:50:15.198Z,1001.8
2022-11-15T02:51:17.096Z,1002
2022-11-15T02:52:19.097Z,1002.1
2022-11-15T02:53:21.122Z,1002.1
2022-11-15T02:54:22.094Z,1002.1
2022-11-15T02:55:23.202Z,1002
2022-11-15T02:56:25.393Z,1002
2022-11-15T02:57:27.394Z,1002
2022-11-15T02:58:29.073Z,1001.9
2022-11-15T02:59:31.193Z,1001.9
2022-11-15T03:00:33.136Z,1001.9
2022-11-15T03:01:35.123Z,1001.9
2022-11-15T03:02:37.112Z,1001.9
2022-11-15T03:03:38.052Z,1002
2022-11-15T03:04:39.073Z,1002
2022-11-15T03:05:40.095Z,1002
2022-11-15T03:06:42.115Z,1002
2022-11-15T03:07:43.097Z,1001.9
2022-11-15T03:08:44.153Z,1001.9
2022-11-15T03:09:46.073Z,1001.9
2022-11-15T03:10:48.085Z,1001.5
2022-11-15T03:11:50.515Z,1001.7
2022-11-15T03:12:52.026Z,1001.8
2022-11-15T03:13:53.052Z,1001.8
2022-11-15T03:14:54.160Z,1001.8
2022-11-15T03:15:55.071Z,1001.8
2022-11-15T03:16:57.137Z,1001.8
2022-11-15T03:17:58.052Z,1001.8
2022-11-15T03:19:00.091Z,1001.8
2022-11-15T03:20:02.400Z,1001.8
2022-11-15T03:21:04.102Z,1001.8
2022-11-15T03:22:05.752Z,1001.9
2022-11-15T03:23:07.137Z,1001.8
2022-11-15T03:24:08.092Z,1001.8
2022-11-15T03:25:09.113Z,1001.8
2022-11-15T03:26:11.139Z,1001.8
2022-11-15T03:27:12.074Z,1001.8
2022-11-15T03:28:13.193Z,1001.8
2022-11-15T03:29:15.436Z,1001.8
2022-11-15T03:30:17.532Z,1001.8
2022-11-15T03:31:19.206Z,1001.8
2022-11-15T03:32:21.100Z,1001.8
2022-11-15T03:33:22.113Z,1001.7
2022-11-15T03:34:23.090Z,1001.7
2022-11-15T03:35:24.135Z,1001.7
2022-11-15T03:36:26.113Z,1001.7
2022-11-15T03:37:28.316Z,1001.7
2022-11-15T03:38:30.623Z,1001.7
2022-11-15T03:39:32.093Z,1001.6
2022-11-15T03:40:34.140Z,1001.6
2022-11-15T03:41:36.152Z,1001.6
2022-11-15T03:42:38.239Z,1001.6
2022-11-15T03:43:40.573Z,1001.6
2022-11-15T03:44:42.134Z,1001.6
2022-11-15T03:45:43.112Z,1001.6
2022-11-15T03:46:44.055Z,1001.6
2022-11-15T03:47:45.075Z,1001.5
2022-11-15T03:48:46.074Z,1001.5
2022-11-15T03:49:47.343Z,1001.6
2022-11-15T03:50:49.195Z,1001.5
2022-11-15T03:51:51.133Z,1001.6
2022-11-15T03:52:52.533Z,1001.5
2022-11-15T03:53:54.179Z,1001.6
2022-11-15T03:54:55.116Z,1001.6
2022-11-15T03:55:57.312Z,1001.6
2022-11-15T03:56:59.353Z,1001.6
2022-11-15T03:58:01.572Z,1001.6
2022-11-15T03:59:03.063Z,1001.6
2022-11-15T04:00:06.272Z,1001.6
2022-11-15T04:01:08.674Z,1001.6
2022-11-15T04:02:10.594Z,1001.6
2022-11-15T04:03:12.144Z,1001.6
2022-11-15T04:04:14.134Z,1001.7
2022-11-15T04:05:16.114Z,1001.6
2022-11-15T04:06:18.133Z,1001.6
2022-11-15T04:07:20.509Z,1001.6
2022-11-15T04:08:22.175Z,1001.6
2022-11-15T04:09:24.158Z,1001.6
2022-11-15T04:10:25.174Z,1001.6
2022-11-15T04:11:27.154Z,1001.6
2022-11-15T04:12:29.156Z,1001.5
2022-11-15T04:13:31.466Z,1001.5
2022-11-15T04:14:33.134Z,1001.6
2022-11-15T04:15:35.133Z,1001.6
2022-11-15T04:16:39.683Z,1000.8
2022-11-15T04:17:38.095Z,1001.4
2022-11-15T04:18:39.173Z,1001.5
2022-11-15T04:19:40.075Z,1001.5
2022-11-15T04:20:41.094Z,1001.6
2022-11-15T04:21:42.593Z,1001.6
2022-11-15T04:22:44.333Z,1001.6
2022-11-15T04:23:46.174Z,1001.6
2022-11-15T04:24:48.237Z,1001.7
2022-11-15T04:25:50.153Z,1001.6
2022-11-15T04:26:51.192Z,1001.2
2022-11-15T04:27:53.396Z,1001.4
2022-11-15T04:28:55.114Z,1001.5
2022-11-15T04:29:57.151Z,1001.5
2022-11-15T04:30:59.195Z,1001.5
2022-11-15T04:32:01.184Z,1001.4
2022-11-15T04:33:03.076Z,1001.4
2022-11-15T04:34:04.114Z,1001.4
2022-11-15T04:35:05.202Z,1001.4
2022-11-15T04:36:07.104Z,1001.4
2022-11-15T04:37:08.154Z,1001.4
2022-11-15T04:38:09.254Z,1001.5
2022-11-15T04:39:11.872Z,1001.4
2022-11-15T04:40:13.143Z,1001.4
2022-11-15T04:41:15.233Z,1001.3
2022-11-15T04:42:17.153Z,1001.4
2022-11-15T04:43:19.135Z,1001.4
2022-11-15T04:44:20.153Z,1001.4
2022-11-15T04:45:22.133Z,1001.4
2022-11-15T04:46:23.202Z,1001.4
2022-11-15T04:47:25.156Z,1001.4
2022-11-15T04:48:26.156Z,1001.5
2022-11-15T04:49:27.061Z,1001.5
2022-11-15T04:50:28.133Z,1001.5
2022-11-15T04:51:29.561Z,1001.5
2022-11-15T04:52:32.014Z,1001.5
2022-11-15T04:53:33.633Z,1001.5
2022-11-15T04:54:35.135Z,1001.5
2022-11-15T04:55:37.203Z,1001.5
2022-11-15T04:56:39.242Z,1001.4
2022-11-15T04:57:41.431Z,1001.5
2022-11-15T04:58:43.192Z,1001.5
2022-11-15T04:59:45.095Z,1001.5
2022-11-15T05:00:46.700Z,1001.5
2022-11-15T05:01:48.712Z,1001.5
2022-11-15T05:02:50.434Z,1001.5
2022-11-15T05:03:52.102Z,1001.5
2022-11-15T05:04:53.189Z,1001.5
2022-11-15T05:05:55.372Z,1001.5
2022-11-15T05:06:58.271Z,1001.5
2022-11-15T05:08:00.156Z,1001.5
2022-11-15T05:09:02.099Z,1001.4
2022-11-15T05:10:04.172Z,1001.4
2022-11-15T05:11:06.168Z,1001.4
2022-11-15T05:12:07.110Z,1001.4
2022-11-15T05:13:08.091Z,1001.4
2022-11-15T05:14:09.231Z,1001.4
2022-11-15T05:15:11.152Z,1001.3
2022-11-15T05:16:13.170Z,1001.3
2022-11-15T05:17:15.319Z,1001.3
2022-11-15T05:18:20.785Z,1001.3
2022-11-15T05:19:19.132Z,1001.3
2022-11-15T05:20:20.973Z,1001.3
2022-11-15T05:21:22.172Z,1001.3
2022-11-15T05:22:24.160Z,1001.3
2022-11-15T05:23:26.130Z,1001.3
2022-11-15T05:24:28.897Z,1001.2
2022-11-15T05:25:31.218Z,1001.2
2022-11-15T05:26:32.165Z,1001.2
2022-11-15T05:27:33.134Z,1001.3
2022-11-15T05:28:34.351Z,1001.2
2022-11-15T05:29:36.555Z,1001.3
2022-11-15T05:30:38.120Z,1001.2
2022-11-15T05:31:39.101Z,1001.3
2022-11-15T05:32:40.073Z,1001.3
2022-11-15T05:33:42.219Z,1001.3
2022-11-15T05:34:44.312Z,1001.2
2022-11-15T05:35:46.213Z,1001.1
2022-11-15T05:36:48.103Z,1001.2
2022-11-15T05:37:49.155Z,1001.2
2022-11-15T05:38:50.614Z,1001.1
2022-11-15T05:39:53.022Z,1001.1
2022-11-15T05:40:55.149Z,1001.1
2022-11-15T05:41:57.220Z,1001
2022-11-15T05:42:59.193Z,1001
2022-11-15T05:44:01.272Z,1001
2022-11-15T05:45:03.239Z,1001
2022-11-15T05:46:05.638Z,1001
2022-11-15T05:47:07.195Z,1001
2022-11-15T05:48:09.520Z,1001.1
2022-11-15T05:49:11.085Z,1001.1
2022-11-15T05:50:12.173Z,1001.2
2022-11-15T05:51:14.173Z,1001.1
2022-11-15T05:52:16.217Z,1001.1
2022-11-15T05:53:18.197Z,1001.1
2022-11-15T05:54:20.132Z,1001.2
2022-11-15T05:55:21.512Z,1001.2
2022-11-15T05:56:23.195Z,1000.5
2022-11-15T05:57:25.231Z,1001
2022-11-15T05:58:27.213Z,1001.2
2022-11-15T05:59:29.258Z,1001.2
2022-11-15T06:00:31.346Z,1001.2
2022-11-15T06:01:33.180Z,1001.2
2022-11-15T06:02:35.373Z,1001.3
2022-11-15T06:03:37.148Z,1001.2
2022-11-15T06:04:38.129Z,1001.1
2022-11-15T06:05:39.273Z,1001.2
2022-11-15T06:06:41.173Z,1001.1
2022-11-15T06:07:43.932Z,1001.1
2022-11-15T06:08:46.340Z,1001.1
2022-11-15T06:09:48.352Z,1001.1
2022-11-15T06:10:50.244Z,1001.1
2022-11-15T06:11:52.212Z,1001.1
2022-11-15T06:12:54.154Z,1001.1
2022-11-15T06:13:55.220Z,1001.1
2022-11-15T06:14:57.194Z,1001.2
2022-11-15T06:15:59.233Z,1001.2
2022-11-15T06:17:01.175Z,1001.1
2022-11-15T06:18:03.998Z,1001.1
2022-11-15T06:19:06.575Z,1001.1
2022-11-15T06:20:08.194Z,1001.1
2022-11-15T06:21:09.141Z,1001
2022-11-15T06:22:10.505Z,1001.1
2022-11-15T06:23:12.354Z,1001.1
2022-11-15T06:24:14.215Z,1001.1
2022-11-15T06:25:16.213Z,1001.2
2022-11-15T06:26:18.175Z,1001.2
2022-11-15T06:27:19.174Z,1001.2
2022-11-15T06:28:21.536Z,1001.2
2022-11-15T06:29:23.241Z,1001.3
2022-11-15T06:30:25.176Z,1001.2
2022-11-15T06:31:27.674Z,1001.2
2022-11-15T06:32:29.219Z,1001.2
2022-11-15T06:33:32.635Z,1001.2
2022-11-15T06:34:34.483Z,1001.2
2022-11-15T06:35:36.156Z,1001.3
2022-11-15T06:36:37.205Z,1001.2
2022-11-15T06:37:38.183Z,1001.3
2022-11-15T06:38:39.255Z,1001.3
2022-11-15T06:39:42.414Z,1001.3
2022-11-15T06:40:44.214Z,1001.3
2022-11-15T06:41:46.513Z,1001.4
2022-11-15T06:42:48.197Z,1001.4
2022-11-15T06:43:49.247Z,1001.4
2022-11-15T06:44:50.166Z,1001.4
2022-11-15T06:45:51.319Z,1001.5
2022-11-15T06:46:53.413Z,1001.5
2022-11-15T06:47:55.194Z,1000.7
2022-11-15T06:48:57.897Z,1001.2
2022-11-15T06:49:59.239Z,1001.4
2022-11-15T06:51:00.193Z,1001.4
2022-11-15T06:52:01.754Z,1001.3
2022-11-15T06:53:03.714Z,1001.3
2022-11-15T06:54:06.116Z,1001.3
2022-11-15T06:55:07.998Z,1001.3
2022-11-15T06:56:09.203Z,1001.3
2022-11-15T06:57:11.510Z,1001.3
2022-11-15T06:58:13.314Z,1001.4
2022-11-15T06:59:15.257Z,1001.3
2022-11-15T07:00:17.252Z,1001.3
2022-11-15T07:01:19.222Z,1001.4
2022-11-15T07:02:21.193Z,1001.4
2022-11-15T07:03:22.302Z,1001.4
2022-11-15T07:04:24.199Z,1001.4
2022-11-15T07:05:25.851Z,1001.5
2022-11-15T07:06:27.659Z,1001.4
2022-11-15T07:07:29.819Z,1001.4
2022-11-15T07:08:31.193Z,1001.4
2022-11-15T07:09:33.342Z,1001.4
2022-11-15T07:10:35.533Z,1001.4
2022-11-15T07:11:37.667Z,1001.5
2022-11-15T07:12:41.420Z,1001.5
2022-11-15T07:13:43.934Z,1001.5
2022-11-15T07:14:46.025Z,1001.5
2022-11-15T07:15:47.680Z,1001.4
2022-11-15T07:16:49.281Z,1001.4
2022-11-15T07:17:51.353Z,1001.4
2022-11-15T07:18:53.715Z,1001.5
2022-11-15T07:19:55.175Z,1001.4
2022-11-15T07:20:56.273Z,1001.4
2022-11-15T07:21:58.155Z,1001.4
2022-11-15T07:22:59.199Z,1001.4
2022-11-15T07:24:01.273Z,1001.4
2022-11-15T07:25:03.773Z,1001.4
2022-11-15T07:26:06.581Z,1001.4
2022-11-15T07:27:08.279Z,1001.5
2022-11-15T07:28:10.214Z,1001.4
2022-11-15T07:29:11.233Z,1001.4
2022-11-15T07:30:15.616Z,1001.4
2022-11-15T07:31:16.314Z,1001.4
2022-11-15T07:32:18.195Z,1001.4
2022-11-15T07:33:19.255Z,1001.4
2022-11-15T07:34:21.223Z,1001.4
2022-11-15T07:35:23.404Z,1001.4
2022-11-15T07:36:26.374Z,1001.3
2022-11-15T07:37:28.398Z,1001.3
2022-11-15T07:38:31.514Z,1001.3
2022-11-15T07:39:33.232Z,1001.3
2022-11-15T07:40:35.714Z,1001.3
2022-11-15T07:41:37.733Z,1001.3
2022-11-15T07:42:39.480Z,1001.2
2022-11-15T07:43:41.294Z,1001.3
2022-11-15T07:44:43.370Z,1001.3
2022-11-15T07:45:45.809Z,1001.2
2022-11-15T07:46:47.454Z,1001.2
2022-11-15T07:47:49.183Z,1001.2
2022-11-15T07:48:50.254Z,1001.2
2022-11-15T07:49:52.595Z,1001.2
2022-11-15T07:50:54.463Z,1001.2
2022-11-15T07:51:56.255Z,1001.2
2022-11-15T07:52:58.314Z,1001.2
2022-11-15T07:54:00.294Z,1001.1
2022-11-15T07:55:02.266Z,1001.1
2022-11-15T07:56:04.763Z,1001.1
2022-11-15T07:57:07.686Z,1001.1
2022-11-15T07:58:08.295Z,1001.1
2022-11-15T07:59:10.178Z,1001.1
2022-11-15T08:00:11.175Z,1001.1
2022-11-15T08:01:12.859Z,1001.1
2022-11-15T08:02:14.300Z,1001.2
2022-11-15T08:03:15.254Z,1001.1
2022-11-15T08:04:16.196Z,1001.1
2022-11-15T08:05:17.184Z,1001.1
2022-11-15T08:06:18.534Z,1001.1
2022-11-15T08:07:20.686Z,1001.1
2022-11-15T08:08:22.263Z,1001.1
2022-11-15T08:09:24.714Z,1001
2022-11-15T08:10:26.328Z,1001.1
2022-11-15T08:11:28.254Z,1001
2022-11-15T08:12:30.306Z,1001.1
2022-11-15T08:13:32.671Z,1001.1
2022-11-15T08:14:33.214Z,1001.1
2022-11-15T08:15:35.207Z,1001
2022-11-15T08:16:36.312Z,1001
2022-11-15T08:17:37.271Z,1001
2022-11-15T08:18:39.456Z,1001
2022-11-15T08:19:42.275Z,1001
2022-11-15T08:20:44.376Z,1001
2022-11-15T08:21:46.454Z,1000.9
2022-11-15T08:22:48.294Z,1000.9
2022-11-15T08:23:50.242Z,1000.9
2022-11-15T08:24:51.995Z,1000.9
2022-11-15T08:25:53.284Z,1000.9
2022-11-15T08:26:55.312Z,1000.9
2022-11-15T08:27:57.275Z,1000.9
2022-11-15T08:28:59.254Z,1000.9
2022-11-15T08:30:01.254Z,1000.9
2022-11-15T08:31:03.342Z,1000.9
2022-11-15T08:32:05.262Z,1000.8
2022-11-15T08:33:07.237Z,1000.9
2022-11-15T08:34:08.821Z,1000.9
2022-11-15T08:35:10.233Z,1000.9
2022-11-15T08:36:11.198Z,1001
2022-11-15T08:37:13.295Z,1000.9
2022-11-15T08:38:15.888Z,1000.9
2022-11-15T08:39:17.394Z,1000.9
2022-11-15T08:40:19.935Z,1000.9
2022-11-15T08:41:21.295Z,1000.9
2022-11-15T08:42:23.476Z,1000.9
2022-11-15T08:43:26.555Z,1000.9
2022-11-15T08:44:28.897Z,1000.9
2022-11-15T08:45:30.297Z,1000.8
2022-11-15T08:46:32.235Z,1000.8
2022-11-15T08:47:33.673Z,1000.8
2022-11-15T08:48:35.589Z,1000.7
2022-11-15T08:49:37.584Z,1000.8
2022-11-15T08:50:39.255Z,1000.7
2022-11-15T08:51:40.295Z,1000.7
2022-11-15T08:52:42.434Z,1000.7
2022-11-15T08:53:44.293Z,1000.7
2022-11-15T08:54:46.237Z,1000.7
2022-11-15T08:55:48.255Z,1000.4
2022-11-15T08:56:50.235Z,1000.7
2022-11-15T08:57:51.375Z,1000.7
2022-11-15T08:58:53.914Z,1000.7
2022-11-15T08:59:55.622Z,1000.8
2022-11-15T09:00:57.251Z,1000.8
2022-11-15T09:01:59.356Z,1000.8
2022-11-15T09:03:01.289Z,1000.7
2022-11-15T09:04:03.332Z,1000.8
2022-11-15T09:05:05.342Z,1000.7
2022-11-15T09:06:07.290Z,1000.7
2022-11-15T09:07:09.372Z,1000.7
2022-11-15T09:08:32.703Z,1000.7
2022-11-15T09:09:12.207Z,1000.7
2022-11-15T09:10:13.636Z,1000.7
2022-11-15T09:11:15.331Z,1000.7
2022-11-15T09:12:17.235Z,1000.7
2022-11-15T09:13:18.216Z,1000.8
2022-11-15T09:14:19.374Z,1000.8
2022-11-15T09:15:21.315Z,1000.7
2022-11-15T09:16:23.435Z,1000.5
2022-11-15T09:17:26.044Z,1000.7
2022-11-15T09:18:27.319Z,1000.8
2022-11-15T09:19:29.256Z,1000.7
2022-11-15T09:20:31.314Z,1000.7
2022-11-15T09:21:33.756Z,1000.7
2022-11-15T09:22:35.435Z,1000.7
2022-11-15T09:23:37.614Z,1000.7
2022-11-15T09:24:39.336Z,1000.7
2022-11-15T09:25:41.339Z,1000.7
2022-11-15T09:26:43.275Z,1000.7
2022-11-15T09:27:45.396Z,1000.1
2022-11-15T09:28:47.820Z,1000.5
2022-11-15T09:29:49.488Z,1000.7
2022-11-15T09:30:51.269Z,1000.6
2022-11-15T09:31:53.274Z,1000.6
2022-11-15T09:32:55.535Z,1000.6
2022-11-15T09:33:58.300Z,1000.6
2022-11-15T09:35:00.355Z,1000.6
2022-11-15T09:36:03.275Z,1000.6
2022-11-15T09:37:05.394Z,1000.6
2022-11-15T09:38:07.340Z,1000.5
2022-11-15T09:39:09.814Z,1000.5
2022-11-15T09:40:12.117Z,1000.5
2022-11-15T09:41:13.294Z,1000.5
2022-11-15T09:42:15.335Z,1000.5
2022-11-15T09:43:17.436Z,1000.5
2022-11-15T09:44:25.206Z,1000.5
2022-11-15T09:45:21.451Z,1000.5
2022-11-15T09:46:23.387Z,1000.5
2022-11-15T09:47:25.394Z,1000.5
2022-11-15T09:48:27.356Z,1000.2
2022-11-15T09:49:29.340Z,1000.3
2022-11-15T09:50:31.334Z,1000.5
2022-11-15T09:51:33.714Z,1000.5
2022-11-15T09:52:36.036Z,1000.3
2022-11-15T09:54:13.926Z,1000.3
2022-11-15T09:54:53.135Z,1000.4
2022-11-15T09:55:42.226Z,1000.4
2022-11-15T09:56:44.355Z,1000.3
2022-11-15T09:57:46.395Z,1000.3
2022-11-15T09:58:48.294Z,1000.3
2022-11-15T09:59:51.264Z,1000.4
2022-11-15T10:00:53.535Z,1000.3
2022-11-15T10:01:55.938Z,1000.2
2022-11-15T10:02:57.376Z,1000.2
2022-11-15T10:03:59.274Z,1000.2
2022-11-15T10:05:01.473Z,1000.2
2022-11-15T10:06:03.396Z,1000.2
2022-11-15T10:07:05.328Z,1000.1
2022-11-15T10:08:07.420Z,1000.1
2022-11-15T10:09:09.374Z,1000.1
2022-11-15T10:10:11.430Z,1000
2022-11-15T10:12:15.293Z,1000.1
2022-11-15T10:13:17.284Z,1000.1
2022-11-15T10:14:18.298Z,1000.1
2022-11-15T10:15:19.353Z,1000.1
2022-11-15T10:16:21.495Z,1000.1
2022-11-15T10:17:23.290Z,1000.1
2022-11-15T10:18:24.265Z,1000.1
2022-11-15T10:19:25.757Z,1000.1
2022-11-15T10:20:27.499Z,1000
2022-11-15T10:21:29.236Z,1000
2022-11-15T10:22:31.295Z,1000
2022-11-15T10:23:32.296Z,1000
2022-11-15T10:24:34.474Z,999.6
2022-11-15T10:25:36.754Z,999.9
2022-11-15T10:26:38.435Z,999.9
2022-11-15T10:27:40.382Z,1000
2022-11-15T10:28:42.372Z,999.9
2022-11-15T10:29:44.334Z,999.9
2022-11-15T10:30:46.394Z,999.9
2022-11-15T10:31:48.544Z,999.9
2022-11-15T10:32:51.062Z,999.9
2022-11-15T10:33:52.818Z,999.9
2022-11-15T10:34:54.344Z,999.9
2022-11-15T10:35:58.466Z,999.9
2022-11-15T10:37:00.377Z,999.8
2022-11-15T10:38:02.375Z,999.8
2022-11-15T10:39:05.135Z,999.8
2022-11-15T10:40:06.444Z,999.8
2022-11-15T10:41:13.434Z,999.8
2022-11-15T10:42:17.847Z,999.8
2022-11-15T10:43:17.334Z,999.9
2022-11-15T10:44:19.433Z,999.8
2022-11-15T10:45:21.455Z,999.8
2022-11-15T10:46:46.967Z,999.7
2022-11-15T10:47:25.450Z,999.7
2022-11-15T10:48:27.399Z,999.7
2022-11-15T10:49:29.295Z,999.7
2022-11-15T10:50:31.354Z,999.6
2022-11-15T10:51:32.380Z,999.5
2022-11-15T10:52:34.341Z,999.5
2022-11-15T10:53:35.354Z,999.5
2022-11-15T10:54:37.774Z,999.5
2022-11-15T10:55:39.503Z,999.5
2022-11-15T10:56:41.442Z,999.5
2022-11-15T10:57:43.437Z,999.5
2022-11-15T10:58:45.656Z,999.5
2022-11-15T10:59:47.347Z,999.5
2022-11-15T11:00:48.294Z,999.5
2022-11-15T11:01:49.340Z,999.5
2022-11-15T11:02:50.614Z,999.5
2022-11-15T11:03:52.616Z,999.3
2022-11-15T11:04:54.294Z,999.5
2022-11-15T11:05:55.315Z,999.5
2022-11-15T11:06:56.376Z,999.5
2022-11-15T11:07:58.815Z,999.5
2022-11-15T11:09:00.575Z,999.5
2022-11-15T11:10:02.413Z,999.5
2022-11-15T11:11:04.667Z,999.5
2022-11-15T11:12:06.715Z,999.5
2022-11-15T11:13:09.214Z,999.5
2022-11-15T11:14:10.334Z,999.5
2022-11-15T11:15:13.013Z,999.5
2022-11-15T11:16:14.377Z,999.5
2022-11-15T11:17:16.598Z,999.4
2022-11-15T11:18:18.439Z,999.4
2022-11-15T11:19:20.333Z,999.4
2022-11-15T11:20:22.416Z,999.5
2022-11-15T11:21:28.950Z,999.4
2022-11-15T11:22:26.520Z,999.4
2022-11-15T11:23:28.380Z,999.5
2022-11-15T11:24:33.274Z,999.4
2022-11-15T11:25:35.553Z,999.4
2022-11-15T11:26:37.416Z,999.4
2022-11-15T11:27:40.476Z,999.4
2022-11-15T11:28:42.714Z,999.4
2022-11-15T11:29:44.354Z,999.4
2022-11-15T11:30:46.382Z,999.4
2022-11-15T11:31:48.274Z,999.4
2022-11-15T11:32:54.948Z,999.4
2022-11-15T11:33:53.114Z,999.2
2022-11-15T11:34:54.330Z,999.3
2022-11-15T11:35:55.355Z,999.3
2022-11-15T11:36:56.434Z,999.3
2022-11-15T11:37:58.537Z,999.3
2022-11-15T11:39:00.953Z,999.2
2022-11-15T11:40:06.224Z,999.2
2022-11-15T11:41:04.440Z,999.2
2022-11-15T11:42:07.239Z,999.1
2022-11-15T11:43:08.452Z,999.2
2022-11-15T11:44:10.353Z,999.2
2022-11-15T11:45:12.009Z,999.2
2022-11-15T11:46:13.429Z,999.1
2022-11-15T11:47:15.518Z,999.1
2022-11-15T11:48:17.475Z,998.7
2022-11-15T11:49:19.396Z,999
2022-11-15T11:50:21.421Z,999
2022-11-15T11:51:23.794Z,999.1
2022-11-15T11:52:25.377Z,998.1
2022-11-15T11:53:27.399Z,998.8
2022-11-15T11:54:29.374Z,999
2022-11-15T11:55:31.736Z,999
2022-11-15T11:56:33.495Z,999
2022-11-15T11:57:36.360Z,999
2022-11-15T11:58:38.493Z,999
2022-11-15T11:59:40.733Z,999
2022-11-15T12:00:42.393Z,999
2022-11-15T12:01:44.521Z,999
2022-11-15T12:02:46.555Z,999
2022-11-15T12:03:48.369Z,999.1
2022-11-15T12:04:50.395Z,999.1
2022-11-15T12:05:52.733Z,999
2022-11-15T12:06:54.551Z,999
2022-11-15T12:07:55.636Z,999
2022-11-15T12:08:57.341Z,999
2022-11-15T12:09:58.354Z,998.9
2022-11-15T12:11:00.973Z,998.9
2022-11-15T12:12:03.663Z,998.9
2022-11-15T12:13:05.394Z,998.9
2022-11-15T12:14:07.357Z,998.9
2022-11-15T12:15:09.454Z,998.8
2022-11-15T12:16:11.458Z,998.8
2022-11-15T12:17:13.394Z,998.9
2022-11-15T12:18:15.396Z,998.8
2022-11-15T12:19:17.354Z,998.8
2022-11-15T12:20:19.334Z,998.8
2022-11-15T12:21:25.456Z,998.7
2022-11-15T12:22:23.671Z,998.7
2022-11-15T12:23:26.176Z,998.7
2022-11-15T12:24:27.456Z,998.7
2022-11-15T12:25:28.415Z,998.7
2022-11-15T12:26:30.914Z,998.7
2022-11-15T12:27:33.274Z,998.6
2022-11-15T12:28:34.639Z,998.7
2022-11-15T12:29:37.098Z,998.6
2022-11-15T12:30:38.553Z,998.6
2022-11-15T12:31:40.373Z,998.6
2022-11-15T12:32:42.431Z,998.6
2022-11-15T12:33:44.434Z,998.6
2022-11-15T12:34:46.362Z,998.6
2022-11-15T12:35:48.398Z,998.5
2022-11-15T12:36:50.415Z,998.6
2022-11-15T12:37:52.442Z,998.5
2022-11-15T12:38:54.433Z,998.5
2022-11-15T12:39:59.657Z,998.5
2022-11-15T12:40:58.374Z,998.5
2022-11-15T12:42:00.711Z,998.5
2022-11-15T12:43:02.416Z,998.4
2022-11-15T12:44:04.413Z,998.5
2022-11-15T12:45:07.193Z,998.4
2022-11-15T12:46:08.447Z,998.5
2022-11-15T12:47:10.355Z,998.5
2022-11-15T12:48:11.375Z,998.5
2022-11-15T12:49:12.308Z,998.5
2022-11-15T12:50:13.954Z,998.5
2022-11-15T12:51:15.534Z,998.5
2022-11-15T12:52:17.401Z,998.5
2022-11-15T12:53:18.335Z,998.5
2022-11-15T12:54:20.514Z,998.4
2022-11-15T12:55:23.444Z,998.4
2022-11-15T12:56:25.498Z,998.4
2022-11-15T12:57:27.456Z,998.4
2022-11-15T12:58:30.036Z,998.3
2022-11-15T12:59:31.375Z,998.3
2022-11-15T13:00:32.773Z,998.4
2022-11-15T13:01:34.637Z,998.4
2022-11-15T13:02:37.234Z,998.3